Check out our new BloomSky Weather System.

Active alerts


No alerts


Thunder radar  blitzortung!


Rain radar more information rain snow radar


Visit our other weather sites:

Template documentation
and downloads

And another site



Weather Underground History page Text

Daily Summary for November 19, 2017 Units:  English    Metric   Both
« Previous Day
Next Day »
Daily Weekly Monthly Yearly Custom
  High: Low: Average:
Temperature: TemperatureF °F 43.5 °F 53.8 °F
Dew Point: DewpointF °F 34.7 °F 39.4 °F
Humidity: Humidity % 34 % 60 %
Wind Speed: WindSpeedMPH mph 0.0 mph 2.4 mph
Wind Gust: WindSpeedGustMPH mph - -
Wind:- - West
Pressure: PressureIn in 30.20 in -
Precipitation: 0.00 in    
Historical Graphs
 
 
Tabular Data for November 19, 2017
Time Temperature Dew Point Pressure Wind Wind Speed Wind Gust Humidity Rainfall Rate (Hourly)
TemperatureF °F DewpointF °F PressureIn in Calm     Humidity % HourlyPrecipIn in
00:01 56.1 °F 42.8 °F 30.21 in NNE 4.0 mph 14.0 mph 61 % 0.00 in
00:11 55.8 °F 43.0 °F 30.20 in NNW 3.0 mph 14.0 mph 62 % 0.00 in
00:16 55.6 °F 42.8 °F 30.21 in North 2.0 mph 12.0 mph 62 % 0.00 in
00:20 55.4 °F 43.0 °F 30.21 in NNW 3.0 mph 12.0 mph 63 % 0.00 in
00:25 55.2 °F 42.4 °F 30.20 in NW 10.0 mph 11.0 mph 62 % 0.00 in
00:36 55.0 °F 42.3 °F 30.21 in North 5.0 mph 15.0 mph 62 % 0.00 in
00:41 54.9 °F 42.1 °F 30.21 in NNW 5.0 mph 15.0 mph 62 % 0.00 in
00:56 54.7 °F 41.5 °F 30.22 in NNE 4.0 mph 15.0 mph 61 % 0.00 in
01:01 54.3 °F 41.5 °F 30.22 in NW 4.0 mph 15.0 mph 62 % 0.00 in
01:06 54.1 °F 41.4 °F 30.22 in NNW 4.0 mph 11.0 mph 62 % 0.00 in
01:11 54.0 °F 40.8 °F 30.22 in North 7.0 mph 10.0 mph 61 % 0.00 in
01:16 54.0 °F 40.8 °F 30.23 in SW 2.0 mph 14.0 mph 61 % 0.00 in
01:26 53.8 °F 39.7 °F 30.22 in SW 2.0 mph 14.0 mph 59 % 0.00 in
01:31 53.8 °F 39.7 °F 30.22 in NNW 5.0 mph 12.0 mph 59 % 0.00 in
01:36 53.6 °F 39.6 °F 30.23 in NNW 4.0 mph 12.0 mph 59 % 0.00 in
01:41 53.4 °F 39.4 °F 30.22 in NNW 4.0 mph 12.0 mph 59 % 0.00 in
01:46 53.2 °F 39.2 °F 30.22 in North 7.0 mph 12.0 mph 59 % 0.00 in
01:51 53.1 °F 39.6 °F 30.22 in North 5.0 mph 11.0 mph 60 % 0.00 in
01:56 53.1 °F 39.2 °F 30.22 in North 5.0 mph 11.0 mph 59 % 0.00 in
02:06 52.9 °F 39.0 °F 30.22 in NNW 2.0 mph 14.0 mph 59 % 0.00 in
02:11 52.7 °F 39.2 °F 30.22 in NE 4.0 mph 14.0 mph 60 % 0.00 in
02:16 52.5 °F 39.0 °F 30.22 in NNE 6.0 mph 14.0 mph 60 % 0.00 in
02:21 52.3 °F 38.8 °F 30.22 in NNE 2.0 mph 12.0 mph 60 % 0.00 in
02:26 52.2 °F 39.2 °F 30.23 in North 4.0 mph 12.0 mph 61 % 0.00 in
02:31 52.2 °F 39.6 °F 30.22 in North 3.0 mph 12.0 mph 62 % 0.00 in
02:41 51.8 °F 39.6 °F 30.23 in NNW 4.0 mph 10.0 mph 63 % 0.00 in
02:46 51.6 °F 39.4 °F 30.22 in NW 3.0 mph 9.0 mph 63 % 0.00 in
02:51 51.6 °F 39.9 °F 30.23 in NNW 2.0 mph 8.0 mph 64 % 0.00 in
02:56 51.6 °F 39.9 °F 30.23 in NNW 2.0 mph 11.0 mph 64 % 0.00 in
03:01 51.4 °F 39.7 °F 30.23 in North 4.0 mph 11.0 mph 64 % 0.00 in
03:06 51.3 °F 39.9 °F 30.23 in NW 3.0 mph 11.0 mph 65 % 0.00 in
03:11 51.1 °F 39.7 °F 30.23 in NNW 3.0 mph 9.0 mph 65 % 0.00 in
03:16 51.1 °F 39.7 °F 30.23 in North 6.0 mph 7.0 mph 65 % 0.00 in
03:17 51.1 °F 39.7 °F 30.23 in North 6.0 mph 7.0 mph 65 % 0.00 in
03:22 51.1 °F 39.7 °F 30.24 in NNW 3.0 mph 7.0 mph 65 % 0.00 in
03:27 50.9 °F 39.6 °F 30.24 in NNW 6.0 mph 7.0 mph 65 % 0.00 in
03:32 50.7 °F 39.4 °F 30.24 in NNW 2.0 mph 9.0 mph 65 % 0.00 in
03:37 50.7 °F 39.4 °F 30.24 in NNW 1.0 mph 9.0 mph 65 % 0.00 in
03:42 50.5 °F 39.2 °F 30.24 in NNW 2.0 mph 9.0 mph 65 % 0.00 in
03:47 50.4 °F 39.4 °F 30.24 in NNW 2.0 mph 7.0 mph 66 % 0.00 in
03:52 50.2 °F 39.2 °F 30.24 in NNW 4.0 mph 6.0 mph 66 % 0.00 in
04:07 49.8 °F 39.4 °F 30.25 in NNW 2.0 mph 6.0 mph 67 % 0.00 in
04:12 49.6 °F 39.2 °F 30.25 in NNW 2.0 mph 7.0 mph 67 % 0.00 in
04:22 49.6 °F 39.2 °F 30.25 in North 3.0 mph 8.0 mph 67 % 0.00 in
04:27 49.5 °F 39.4 °F 30.25 in NW 2.0 mph 8.0 mph 68 % 0.00 in
04:47 48.9 °F 39.2 °F 30.25 in NNW 2.0 mph 6.0 mph 69 % 0.00 in
04:52 48.9 °F 39.2 °F 30.25 in NNE 6.0 mph 7.0 mph 69 % 0.00 in
04:57 48.9 °F 39.2 °F 30.25 in NNW 3.0 mph 9.0 mph 69 % 0.00 in
05:02 48.7 °F 39.4 °F 30.25 in NNE 2.0 mph 9.0 mph 70 % 0.00 in
05:07 48.6 °F 39.2 °F 30.25 in NW 2.0 mph 9.0 mph 70 % 0.00 in
05:13 48.4 °F 39.4 °F 30.25 in North 3.0 mph 6.0 mph 71 % 0.00 in
05:18 48.4 °F 39.4 °F 30.25 in North 3.0 mph 6.0 mph 71 % 0.00 in
05:28 48.2 °F 39.2 °F 30.25 in NW 3.0 mph 7.0 mph 71 % 0.00 in
05:33 48.2 °F 39.2 °F 30.25 in NNW 1.0 mph 7.0 mph 71 % 0.00 in
05:38 48.0 °F 39.4 °F 30.26 in North 5.0 mph 7.0 mph 72 % 0.00 in
05:48 48.0 °F 39.4 °F 30.26 in North 3.0 mph 6.0 mph 72 % 0.00 in
05:53 48.0 °F 39.4 °F 30.26 in NNW 1.0 mph 7.0 mph 72 % 0.00 in
05:58 48.0 °F 39.4 °F 30.26 in North 7.0 mph 7.0 mph 72 % 0.00 in
06:03 48.0 °F 39.4 °F 30.27 in NNW 1.0 mph 7.0 mph 72 % 0.00 in
06:13 47.8 °F 39.2 °F 30.27 in WSW 1.0 mph 7.0 mph 72 % 0.00 in
06:18 47.8 °F 39.2 °F 30.27 in NW 1.0 mph 7.0 mph 72 % 0.00 in
06:23 47.8 °F 39.2 °F 30.27 in NNW 2.0 mph 7.0 mph 72 % 0.00 in
06:33 47.5 °F 39.2 °F 30.28 in NW 1.0 mph 7.0 mph 73 % 0.00 in
06:53 47.1 °F 39.2 °F 30.29 in NNW 4.0 mph 7.0 mph 74 % 0.00 in
07:03 47.1 °F 39.2 °F 30.29 in NNW 1.0 mph 7.0 mph 74 % 0.00 in
07:13 46.9 °F 39.4 °F 30.29 in NNW 3.0 mph 6.0 mph 75 % 0.00 in
07:18 46.9 °F 39.4 °F 30.30 in NNW 2.0 mph 6.0 mph 75 % 0.00 in
07:23 47.1 °F 39.6 °F 30.30 in North 2.0 mph 6.0 mph 75 % 0.00 in
07:28 47.3 °F 39.7 °F 30.30 in North 3.0 mph 6.0 mph 75 % 0.00 in
07:33 47.7 °F 39.7 °F 30.30 in NNW 3.0 mph 7.0 mph 74 % 0.00 in
07:38 48.0 °F 39.7 °F 30.30 in NNW 3.0 mph 7.0 mph 73 % 0.00 in
07:43 48.4 °F 40.1 °F 30.30 in NNW 1.0 mph 7.0 mph 73 % 0.00 in
07:48 48.7 °F 40.5 °F 30.31 in NW 1.0 mph 7.0 mph 73 % 0.00 in
08:08 50.4 °F 41.0 °F 30.32 in NNW 3.0 mph 6.0 mph 70 % 0.00 in
08:18 51.1 °F 41.2 °F 30.32 in NNW 5.0 mph 7.0 mph 69 % 0.00 in
08:23 51.4 °F 41.2 °F 30.32 in NW 2.0 mph 7.0 mph 68 % 0.00 in
08:33 52.2 °F 41.5 °F 30.32 in NNW 3.0 mph 7.0 mph 67 % 0.00 in
08:39 52.9 °F 41.9 °F 30.33 in NW 1.0 mph 8.0 mph 66 % 0.00 in
08:49 54.0 °F 41.7 °F 30.34 in WNW 2.0 mph 8.0 mph 63 % 0.00 in
09:04 55.6 °F 41.5 °F 30.34 in NNE 1.0 mph 11.0 mph 59 % 0.00 in
09:09 55.8 °F 40.8 °F 30.34 in NW 6.0 mph 11.0 mph 57 % 0.00 in
09:19 56.5 °F 41.4 °F 30.34 in North 1.0 mph 11.0 mph 57 % 0.00 in
09:24 57.2 °F 41.2 °F 30.35 in NNW 3.0 mph 11.0 mph 55 % 0.00 in
09:29 57.6 °F 41.5 °F 30.35 in North 1.0 mph 11.0 mph 55 % 0.00 in
09:39 57.9 °F 40.5 °F 30.35 in NNE 2.0 mph 10.0 mph 52 % 0.00 in
09:54 58.3 °F 39.2 °F 30.35 in NE 5.0 mph 13.0 mph 49 % 0.00 in
10:04 58.6 °F 39.0 °F 30.34 in North 5.0 mph 12.0 mph 48 % 0.00 in
10:19 58.8 °F 38.7 °F 30.35 in North 7.0 mph 15.0 mph 47 % 0.00 in
10:27 59.5 °F 38.7 °F 30.34 in NE 3.0 mph 16.0 mph 46 % 0.00 in
10:32 59.5 °F 38.7 °F 30.34 in NW 2.0 mph 16.0 mph 46 % 0.00 in
10:37 59.7 °F 38.3 °F 30.34 in NNW 6.0 mph 11.0 mph 45 % 0.00 in
10:46 59.9 °F 37.9 °F 30.33 in West 7.0 mph 13.0 mph 44 % 0.00 in
10:51 60.1 °F 38.1 °F 30.33 in NNE 10.0 mph 13.0 mph 44 % 0.00 in
11:16 61.0 °F 38.8 °F 30.32 in North 1.0 mph 12.0 mph 44 % 0.00 in
11:21 61.0 °F 38.8 °F 30.32 in NNW 1.0 mph 11.0 mph 44 % 0.00 in
11:26 61.3 °F 38.7 °F 30.32 in West 1.0 mph 11.0 mph 43 % 0.00 in
11:31 61.9 °F 38.5 °F 30.31 in NNW 3.0 mph 11.0 mph 42 % 0.00 in
11:36 61.5 °F 37.6 °F 30.31 in NNW 5.0 mph 9.0 mph 41 % 0.00 in
11:41 61.2 °F 37.2 °F 30.31 in NW 6.0 mph 12.0 mph 41 % 0.00 in
11:46 61.0 °F 38.8 °F 30.30 in NNW 3.0 mph 12.0 mph 44 % 0.00 in
12:06 61.9 °F 38.5 °F 30.29 in NNW 3.0 mph 11.0 mph 42 % 0.00 in
12:11 61.9 °F 38.5 °F 30.29 in NNW 10.0 mph 11.0 mph 42 % 0.00 in
12:16 62.2 °F 38.3 °F 30.29 in NW 6.0 mph 10.0 mph 41 % 0.00 in
12:21 62.1 °F 38.1 °F 30.28 in NNW 3.0 mph 12.0 mph 41 % 0.00 in
12:26 62.4 °F 39.0 °F 30.28 in NNW 6.0 mph 12.0 mph 42 % 0.00 in
12:31 62.2 °F 37.6 °F 30.27 in NW 1.0 mph 12.0 mph 40 % 0.00 in
12:41 62.4 °F 38.5 °F 30.27 in Calm   11.0 mph 41 % 0.00 in
12:46 62.6 °F 37.9 °F 30.27 in North 5.0 mph 12.0 mph 40 % 0.00 in
12:56 62.8 °F 37.4 °F 30.26 in North 3.0 mph 12.0 mph 39 % 0.00 in
13:01 63.0 °F 36.3 °F 30.26 in NNW 4.0 mph 10.0 mph 37 % 0.00 in
13:02 62.8 °F 36.9 °F 30.25 in NNW 5.0 mph 10.0 mph 38 % 0.00 in
13:07 63.1 °F 37.0 °F 30.25 in NNW 3.0 mph 8.0 mph 38 % 0.00 in
13:12 63.5 °F 36.7 °F 30.25 in ENE 3.0 mph 11.0 mph 37 % 0.00 in
13:17 63.3 °F 36.7 °F 30.24 in NNW 3.0 mph 11.0 mph 37 % 0.00 in
13:22 63.9 °F 35.6 °F 30.24 in WNW 4.0 mph 11.0 mph 35 % 0.00 in
13:43 63.7 °F 34.7 °F 30.24 in NW 5.0 mph 10.0 mph 34 % 0.00 in
13:48 64.0 °F 35.8 °F 30.23 in North 5.0 mph 10.0 mph 35 % 0.00 in
13:53 64.0 °F 36.5 °F 30.23 in NW 6.0 mph 10.0 mph 36 % 0.00 in
13:58 64.0 °F 36.5 °F 30.23 in North 5.0 mph 10.0 mph 36 % 0.00 in
14:08 64.4 °F 37.6 °F 30.22 in NNW 5.0 mph 11.0 mph 37 % 0.00 in
14:18 64.8 °F 36.5 °F 30.22 in North 7.0 mph 12.0 mph 35 % 0.00 in
14:23 64.9 °F 36.7 °F 30.22 in Calm   12.0 mph 35 % 0.00 in
14:28 65.1 °F 36.9 °F 30.22 in Calm   9.0 mph 35 % 0.00 in
14:33 64.9 °F 37.4 °F 30.21 in WNW 2.0 mph 9.0 mph 36 % 0.00 in
14:43 64.2 °F 36.7 °F 30.21 in NNW 3.0 mph 11.0 mph 36 % 0.00 in
14:48 64.2 °F 37.4 °F 30.21 in NE 2.0 mph 11.0 mph 37 % 0.00 in
14:53 64.2 °F 36.7 °F 30.21 in North 1.0 mph 11.0 mph 36 % 0.00 in
14:58 64.6 °F 37.8 °F 30.21 in North 3.0 mph 9.0 mph 37 % 0.00 in
15:03 64.8 °F 37.9 °F 30.21 in NW 4.0 mph 9.0 mph 37 % 0.00 in
15:08 64.9 °F 37.4 °F 30.21 in NNE 3.0 mph 8.0 mph 36 % 0.00 in
15:18 64.9 °F 37.4 °F 30.21 in WNW 4.0 mph 8.0 mph 36 % 0.00 in
15:23 64.8 °F 37.2 °F 30.21 in NW 3.0 mph 8.0 mph 36 % 0.00 in
15:28 64.6 °F 36.3 °F 30.21 in NNW 4.0 mph 8.0 mph 35 % 0.00 in
15:33 64.0 °F 36.5 °F 30.21 in NNW 4.0 mph 9.0 mph 36 % 0.00 in
15:38 64.2 °F 36.7 °F 30.21 in North 3.0 mph 9.0 mph 36 % 0.00 in
15:43 64.2 °F 36.7 °F 30.20 in NW 2.0 mph 9.0 mph 36 % 0.00 in
15:48 64.2 °F 36.7 °F 30.20 in NNE 3.0 mph 8.0 mph 36 % 0.00 in
15:58 63.7 °F 36.9 °F 30.20 in NNW 4.0 mph 8.0 mph 37 % 0.00 in
16:08 63.1 °F 36.5 °F 30.21 in North 3.0 mph 8.0 mph 37 % 0.00 in
16:13 62.8 °F 36.9 °F 30.21 in WNW 1.0 mph 7.0 mph 38 % 0.00 in
16:18 62.6 °F 37.2 °F 30.21 in NW 2.0 mph 5.0 mph 39 % 0.00 in
16:23 62.4 °F 37.2 °F 30.21 in North 3.0 mph 5.0 mph 39 % 0.00 in
16:28 62.2 °F 37.0 °F 30.20 in NNW 3.0 mph 4.0 mph 39 % 0.00 in
16:31 62.2 °F 37.6 °F 30.21 in North 2.0 mph 5.0 mph 40 % 0.00 in
16:56 61.0 °F 38.3 °F 30.20 in Calm   7.0 mph 43 % 0.00 in
17:01 60.6 °F 38.7 °F 30.20 in Calm   6.0 mph 44 % 0.00 in
17:06 60.3 °F 38.8 °F 30.20 in Calm   6.0 mph 45 % 0.00 in
17:11 60.1 °F 39.2 °F 30.20 in Calm   2.0 mph 46 % 0.00 in
17:21 59.2 °F 39.6 °F 30.20 in Calm   2.0 mph 48 % 0.00 in
17:26 58.6 °F 39.6 °F 30.21 in Calm   1.0 mph 49 % 0.00 in
17:51 55.9 °F 38.5 °F 30.21 in Calm   1.0 mph 52 % 0.00 in
17:56 55.6 °F 39.2 °F 30.21 in Calm   1.0 mph 54 % 0.00 in
18:01 55.2 °F 38.8 °F 30.21 in Calm   1.0 mph 54 % 0.00 in
18:06 55.0 °F 40.1 °F 30.21 in Calm   1.0 mph 57 % 0.00 in
18:11 54.7 °F 40.3 °F 30.21 in Calm   1.0 mph 58 % 0.00 in
18:16 54.0 °F 40.5 °F 30.22 in Calm   1.0 mph 60 % 0.00 in
18:26 52.9 °F 41.0 °F 30.22 in Calm     64 % 0.00 in
18:31 52.3 °F 40.1 °F 30.22 in Calm     63 % 0.00 in
18:36 51.6 °F 39.9 °F 30.22 in Calm     64 % 0.00 in
18:41 51.1 °F 39.7 °F 30.22 in Calm     65 % 0.00 in
18:46 50.5 °F 40.5 °F 30.22 in Calm     68 % 0.00 in
18:51 50.4 °F 40.3 °F 30.22 in Calm     68 % 0.00 in
19:06 49.3 °F 40.3 °F 30.22 in Calm     71 % 0.00 in
19:07 49.1 °F 40.1 °F 30.22 in Calm     71 % 0.00 in
19:27 48.7 °F 40.8 °F 30.23 in Calm     74 % 0.00 in
19:32 48.7 °F 41.5 °F 30.23 in Calm     76 % 0.00 in
19:37 48.7 °F 41.5 °F 30.23 in Calm     76 % 0.00 in
19:42 48.7 °F 41.5 °F 30.23 in Calm     76 % 0.00 in
19:47 48.6 °F 41.4 °F 30.24 in Calm     76 % 0.00 in
19:52 48.4 °F 41.5 °F 30.24 in Calm     77 % 0.00 in
19:57 48.2 °F 41.4 °F 30.24 in Calm     77 % 0.00 in
20:02 48.4 °F 42.3 °F 30.24 in Calm     79 % 0.00 in
20:07 48.4 °F 42.3 °F 30.24 in Calm     79 % 0.00 in
20:17 48.2 °F 42.3 °F 30.24 in Calm     80 % 0.00 in
20:22 48.6 °F 43.0 °F 30.24 in Calm     81 % 0.00 in
20:32 49.1 °F 43.2 °F 30.24 in Calm   1.0 mph 80 % 0.00 in
20:42 49.1 °F 42.6 °F 30.24 in Calm   1.0 mph 78 % 0.00 in
20:47 48.9 °F 42.4 °F 30.24 in Calm   1.0 mph 78 % 0.00 in
20:57 48.0 °F 41.9 °F 30.24 in Calm     79 % 0.00 in
21:02 47.7 °F 41.7 °F 30.24 in Calm     80 % 0.00 in
21:07 47.5 °F 41.9 °F 30.24 in Calm     81 % 0.00 in
21:12 46.9 °F 41.4 °F 30.24 in Calm     81 % 0.00 in
21:22 46.0 °F 41.2 °F 30.24 in Calm     83 % 0.00 in
21:38 45.7 °F 41.7 °F 30.24 in Calm     86 % 0.00 in
21:43 46.0 °F 42.4 °F 30.24 in Calm     87 % 0.00 in
21:48 46.0 °F 42.1 °F 30.23 in Calm     86 % 0.00 in
21:58 45.9 °F 41.9 °F 30.24 in Calm     86 % 0.00 in
22:13 45.9 °F 42.3 °F 30.24 in Calm   1.0 mph 87 % 0.00 in
22:18 45.7 °F 42.1 °F 30.23 in Calm     87 % 0.00 in
22:23 45.3 °F 41.7 °F 30.23 in Calm     87 % 0.00 in
22:28 45.1 °F 41.5 °F 30.23 in Calm     87 % 0.00 in
22:33 45.0 °F 41.5 °F 30.23 in Calm     88 % 0.00 in
22:38 44.8 °F 41.4 °F 30.23 in Calm     88 % 0.00 in
22:53 44.6 °F 41.9 °F 30.22 in Calm     90 % 0.00 in
23:03 44.6 °F 41.9 °F 30.22 in Calm     90 % 0.00 in
23:13 44.2 °F 41.5 °F 30.23 in Calm     90 % 0.00 in
23:23 44.1 °F 41.4 °F 30.22 in Calm     90 % 0.00 in
23:28 44.1 °F 41.5 °F 30.22 in Calm     91 % 0.00 in
23:33 44.1 °F 41.5 °F 30.22 in Calm     91 % 0.00 in
23:44 43.9 °F 41.4 °F 30.22 in Calm     91 % 0.00 in
23:54 43.5 °F 41.4 °F 30.22 in Calm     92 % 0.00 in
23:59 43.5 °F 41.0 °F 30.22 in Calm     91 % 0.00 in
Spring, Texas: Villages of Bridgestone
Compliments of Weather Underground - 2.25 mb

Script developed by  Jim McMurry - jmcmurry@mwt.net Adapted for the template by  Wim van der Kuil - Leuven-Template.eu

You find our weather info also at:

UK Metoffice

WeatherCloud

Weather Underground

Mid-South Weather Network

AWEKAS

Citizen Weather Observer Program (CWOP)

HAMweather, WeatherForYou, PWS Weather

Equipment we use:

Weather-station
Davis Vantage Vue

Weather-program
Meteohub

Weather-server
Debian 7.9 x86 (Guest)

Provider
DreamHost

Davis Vantage Vue

Meteohub

Debian 7.9 x86 (Guest)

DreamHost